Time;durP1;ratioP1;P1;durP2;ratioP2;P2;SDS_P1;SDS_P2;PMS_P1;PMS_P2;Temp;Humidity;BMP_temperature;BMP_pressure;BME280_temperature;BME280_humidity;BME280_pressure;Samples;Min_cycle;Max_cycle;Signal;HPM_P1;HPM_P2
2021/12/22 13:22:14;;;;;;;13.07;7.30;;;7.10;93.50;;;;;;6316979;22;20236;-87
2021/12/22 13:24:40;;;;;;;16.13;7.37;;;7.00;93.80;;;;;;6312871;22;20196;-88
2021/12/22 13:27:05;;;;;;;12.10;7.40;;;7.00;93.80;;;;;;6340343;22;20178;-88
2021/12/22 13:29:31;;;;;;;12.67;7.37;;;6.80;94.20;;;;;;6312572;22;20232;-88
2021/12/22 13:32:06;;;;;;;14.23;7.73;;;6.80;94.40;;;;;;6312279;22;20609;-88
2021/12/22 13:34:44;;;;;;;11.70;7.33;;;6.70;94.70;;;;;;6312532;22;20640;-88
2021/12/22 13:37:10;;;;;;;15.37;7.23;;;6.50;95.40;;;;;;6313159;22;20137;-88
2021/12/22 13:39:45;;;;;;;11.03;6.97;;;6.50;96.00;;;;;;6340176;22;20165;-87
2021/12/22 13:42:12;;;;;;;12.37;8.20;;;6.60;95.30;;;;;;6340106;22;20134;-88
2021/12/22 13:44:39;;;;;;;13.90;8.50;;;6.60;96.20;;;;;;6312480;22;20155;-88
2021/12/22 13:47:05;;;;;;;20.83;10.27;;;6.70;97.60;;;;;;6312774;22;20708;-88
2021/12/22 13:49:32;;;;;;;17.23;9.93;;;6.80;98.30;;;;;;6339527;22;20143;-86
2021/12/22 13:51:58;;;;;;;15.60;8.53;;;6.90;98.40;;;;;;6339650;22;20161;-88
2021/12/22 13:54:27;;;;;;;17.50;8.63;;;6.80;98.60;;;;;;6312400;22;20150;-86
2021/12/22 13:56:59;;;;;;;19.13;8.70;;;6.70;98.80;;;;;;6312771;22;20173;-87
2021/12/22 13:59:29;;;;;;;18.17;8.90;;;6.60;99.20;;;;;;6339964;22;20134;-89
2021/12/22 14:01:57;;;;;;;14.83;8.90;;;6.60;99.40;;;;;;6312749;22;20151;-88
2021/12/22 14:04:27;;;;;;;19.80;9.17;;;6.40;99.70;;;;;;6312175;22;20642;-89
2021/12/22 14:06:55;;;;;;;18.27;8.93;;;6.40;99.90;;;;;;6312416;22;20190;-88
2021/12/22 14:09:27;;;;;;;14.80;8.97;;;6.30;99.90;;;;;;6312744;22;20172;-87
2021/12/22 14:12:01;;;;;;;16.00;9.30;;;6.40;99.80;;;;;;6339915;22;20141;-88
2021/12/22 14:14:37;;;;;;;14.30;8.27;;;6.50;99.70;;;;;;6312171;22;20176;-89
2021/12/22 14:17:03;;;;;;;14.07;8.03;;;6.50;99.70;;;;;;6312502;22;20224;-88
2021/12/22 14:19:32;;;;;;;16.63;8.87;;;6.30;99.90;;;;;;6312785;22;20177;-88
2021/12/22 14:22:04;;;;;;;14.53;8.03;;;6.20;99.90;;;;;;6312304;22;20182;-89
2021/12/22 14:24:32;;;;;;;15.27;8.40;;;6.20;99.90;;;;;;6311831;22;20591;-89
2021/12/22 14:26:59;;;;;;;16.53;8.50;;;6.30;99.90;;;;;;6312161;22;20185;-88
2021/12/22 14:29:26;;;;;;;11.93;7.43;;;6.40;99.90;;;;;;6312069;22;20567;-89
2021/12/22 14:31:56;;;;;;;14.97;7.70;;;6.40;99.60;;;;;;6311775;22;20150;-87
2021/12/22 14:34:21;;;;;;;15.57;8.53;;;6.30;99.50;;;;;;6339394;22;20172;-88
2021/12/22 14:36:50;;;;;;;14.93;8.03;;;6.50;99.10;;;;;;6311947;22;20500;-87
2021/12/22 14:39:16;;;;;;;12.77;7.50;;;6.30;99.20;;;;;;6339788;22;20134;-88
2021/12/22 14:41:43;;;;;;;12.03;7.57;;;6.30;99.20;;;;;;6339741;22;20136;-89
2021/12/22 14:44:21;;;;;;;11.30;7.20;;;6.30;99.50;;;;;;6340037;22;20134;-86
2021/12/22 14:46:49;;;;;;;14.63;7.80;;;6.30;99.00;;;;;;6311836;22;20217;-89
2021/12/22 14:49:18;;;;;;;14.70;7.87;;;6.40;99.20;;;;;;6312226;22;20572;-89
2021/12/22 14:51:45;;;;;;;13.27;7.73;;;6.10;99.50;;;;;;6311999;22;20157;-89
2021/12/22 14:54:11;;;;;;;15.67;7.87;;;5.80;99.90;;;;;;6312310;22;20146;-89
2021/12/22 14:56:52;;;;;;;18.80;7.40;;;5.60;99.90;;;;;;6311766;22;20181;-87
2021/12/22 14:59:19;;;;;;;15.80;8.00;;;5.80;99.90;;;;;;6312268;22;20232;-87
2021/12/22 15:01:46;;;;;;;19.87;9.40;;;5.50;99.90;;;;;;6311726;22;20483;-88
2021/12/22 15:04:12;;;;;;;18.53;10.37;;;5.40;99.90;;;;;;6312164;22;20145;-88
2021/12/22 15:06:38;;;;;;;18.23;10.43;;;5.40;99.90;;;;;;6311936;22;20177;-86
2021/12/22 15:09:06;;;;;;;19.30;10.30;;;5.40;99.90;;;;;;6312224;22;20138;-89
2021/12/22 15:11:32;;;;;;;17.23;9.60;;;5.30;99.90;;;;;;6311836;22;20145;-88
2021/12/22 15:13:58;;;;;;;14.87;9.23;;;5.30;99.90;;;;;;6312066;22;20142;-88
2021/12/22 15:29:45;;;;;;;18.17;10.40;;;4.90;99.90;;;;;;6324564;22;20234;-90
2021/12/22 15:32:11;;;;;;;21.03;10.73;;;4.70;99.90;;;;;;6311492;22;20458;-89
2021/12/22 15:34:36;;;;;;;18.00;11.00;;;4.80;99.90;;;;;;6288451;22;20170;-92
2021/12/22 15:37:02;;;;;;;20.07;11.37;;;4.80;99.90;;;;;;6280780;22;20200;-91
2021/12/22 15:39:28;;;;;;;19.23;10.60;;;4.70;99.90;;;;;;6278003;22;20153;-91
2021/12/22 15:41:53;;;;;;;16.50;9.50;;;4.50;99.90;;;;;;6277419;22;20263;-92
2021/12/22 15:44:19;;;;;;;24.37;9.93;;;4.30;99.90;;;;;;6279677;22;20616;-91
2021/12/22 15:46:45;;;;;;;19.60;9.87;;;4.30;99.90;;;;;;6279901;22;20643;-91
2021/12/22 15:49:10;;;;;;;16.93;9.57;;;4.30;99.90;;;;;;6280857;22;20149;-91
2021/12/22 15:51:36;;;;;;;17.90;10.10;;;4.20;99.90;;;;;;6280417;22;20648;-91
2021/12/22 15:54:03;;;;;;;18.37;9.83;;;4.10;99.90;;;;;;6281124;22;20451;-91
2021/12/22 15:56:29;;;;;;;17.67;9.83;;;4.20;99.90;;;;;;6280663;22;20154;-91
2021/12/22 15:58:54;;;;;;;16.30;9.53;;;4.20;99.90;;;;;;6280191;22;20598;-91
2021/12/22 16:01:20;;;;;;;22.33;9.70;;;4.20;99.90;;;;;;6280537;22;20154;-90
2021/12/22 16:03:46;;;;;;;19.37;9.83;;;4.30;99.90;;;;;;6280084;22;20525;-91
2021/12/22 16:06:11;;;;;;;18.33;9.13;;;4.30;99.90;;;;;;6280852;22;20177;-91
2021/12/22 16:08:37;;;;;;;16.60;10.10;;;4.30;99.90;;;;;;6279803;22;20186;-90
2021/12/22 16:11:03;;;;;;;19.20;8.90;;;4.20;99.90;;;;;;6280613;22;20551;-92
2021/12/22 16:13:28;;;;;;;17.53;9.70;;;4.30;99.90;;;;;;6280321;22;20146;-91
2021/12/22 16:15:54;;;;;;;18.50;9.27;;;4.30;99.90;;;;;;6280767;22;20599;-91
2021/12/22 16:18:20;;;;;;;19.17;9.90;;;4.20;99.90;;;;;;6279973;22;20142;-92
2021/12/22 16:20:46;;;;;;;19.43;9.53;;;4.10;99.90;;;;;;6280026;22;20224;-89
2021/12/22 16:23:12;;;;;;;19.17;9.77;;;4.10;99.90;;;;;;6280430;22;20518;-90
2021/12/22 16:25:38;;;;;;;15.77;10.03;;;4.30;99.90;;;;;;6281163;22;20210;-92
2021/12/22 16:28:04;;;;;;;17.90;10.17;;;4.00;99.90;;;;;;6282453;22;20476;-92
2021/12/22 16:30:30;;;;;;;17.23;9.53;;;3.90;99.90;;;;;;6279890;22;20166;-92
2021/12/22 16:32:56;;;;;;;14.80;9.13;;;3.90;99.90;;;;;;6279496;22;20624;-92
2021/12/22 16:35:22;;;;;;;17.57;9.53;;;3.90;99.90;;;;;;6280461;22;20152;-91
2021/12/22 16:37:48;;;;;;;15.33;10.37;;;3.80;99.90;;;;;;6280377;22;20156;-92
2021/12/22 16:40:15;;;;;;;21.30;9.70;;;3.80;99.90;;;;;;6278898;22;20166;-92
2021/12/22 16:42:40;;;;;;;17.30;10.37;;;3.70;99.90;;;;;;6279928;22;20293;-91
2021/12/22 16:45:07;;;;;;;18.47;10.07;;;3.90;99.90;;;;;;6280487;22;20202;-92
2021/12/22 16:47:33;;;;;;;18.63;10.27;;;4.10;99.90;;;;;;6280318;22;20633;-91
2021/12/22 16:49:58;;;;;;;14.83;9.37;;;4.00;99.90;;;;;;6280540;22;20175;-91
2021/12/22 16:52:24;;;;;;;17.30;9.87;;;4.00;99.90;;;;;;6280206;22;20219;-91
2021/12/22 16:54:50;;;;;;;16.57;9.80;;;3.90;99.90;;;;;;6280001;22;20192;-90
2021/12/22 16:57:16;;;;;;;20.63;9.83;;;4.00;99.90;;;;;;6280067;22;20233;-91
2021/12/22 16:59:42;;;;;;;17.87;9.90;;;3.80;99.90;;;;;;6280021;22;20188;-90
2021/12/22 17:02:08;;;;;;;13.80;9.63;;;4.00;99.90;;;;;;6280878;22;20192;-91
2021/12/22 17:04:33;;;;;;;15.93;10.17;;;4.10;99.90;;;;;;6279754;22;20142;-91
2021/12/22 17:07:04;;;;;;;17.13;9.40;;;4.00;99.90;;;;;;6280038;22;20173;-91
2021/12/22 17:09:30;;;;;;;18.30;9.63;;;4.00;99.90;;;;;;6279892;22;20152;-92
2021/12/22 17:11:55;;;;;;;18.30;9.40;;;4.10;99.90;;;;;;6279475;22;20162;-91
2021/12/22 17:14:22;;;;;;;17.87;9.47;;;4.10;99.90;;;;;;6280172;22;20134;-90
2021/12/22 17:16:47;;;;;;;18.10;9.83;;;4.30;99.90;;;;;;6280204;22;20149;-90
2021/12/22 17:19:13;;;;;;;15.90;9.03;;;4.20;99.90;;;;;;6280042;22;20146;-91
2021/12/22 17:21:39;;;;;;;18.13;8.90;;;4.10;99.90;;;;;;6279076;22;20160;-91
2021/12/22 17:24:05;;;;;;;18.93;9.00;;;4.30;99.90;;;;;;6279081;22;20152;-90
2021/12/22 17:26:31;;;;;;;16.87;9.90;;;4.10;99.90;;;;;;6279256;22;20202;-91
2021/12/22 17:28:56;;;;;;;16.43;9.83;;;4.10;99.90;;;;;;6279793;22;20150;-91
2021/12/22 17:31:22;;;;;;;18.20;9.90;;;4.00;99.90;;;;;;6279471;22;20173;-91
2021/12/22 17:33:48;;;;;;;14.60;9.50;;;3.90;99.90;;;;;;6279577;22;20531;-91
2021/12/22 17:36:14;;;;;;;17.57;9.67;;;4.10;99.90;;;;;;6280014;22;20146;-91
2021/12/22 17:38:39;;;;;;;17.63;10.40;;;4.10;99.90;;;;;;6279543;22;20146;-90
2021/12/22 17:41:07;;;;;;;18.43;9.60;;;4.10;99.90;;;;;;6278891;22;20180;-91
2021/12/22 17:43:32;;;;;;;15.43;9.73;;;4.10;99.90;;;;;;6281671;22;20153;-90
2021/12/22 17:45:58;;;;;;;17.33;9.80;;;4.00;99.90;;;;;;6281490;22;20204;-91
2021/12/22 17:48:24;;;;;;;15.90;10.27;;;4.00;99.90;;;;;;6281863;22;20469;-91
2021/12/22 17:50:52;;;;;;;14.07;9.17;;;3.90;99.90;;;;;;6281501;22;20481;-91
2021/12/22 17:53:19;;;;;;;17.03;9.87;;;4.00;99.90;;;;;;6281844;22;20142;-91
2021/12/22 17:55:45;;;;;;;16.90;9.20;;;3.90;99.90;;;;;;6281329;22;20164;-91
2021/12/22 17:58:13;;;;;;;18.70;9.93;;;4.00;99.90;;;;;;6281942;22;20195;-91
2021/12/22 18:00:41;;;;;;;20.87;10.03;;;4.10;99.90;;;;;;6281367;22;20656;-91
2021/12/22 18:03:07;;;;;;;17.93;10.57;;;3.90;99.90;;;;;;6281990;22;20598;-91
2021/12/22 18:05:36;;;;;;;21.47;9.83;;;3.90;99.90;;;;;;6282031;22;20150;-91
2021/12/22 18:08:02;;;;;;;19.97;10.43;;;3.90;99.90;;;;;;6282005;22;20146;-92
2021/12/22 18:10:28;;;;;;;18.77;10.70;;;3.90;99.90;;;;;;6281846;22;20185;-91
2021/12/22 18:12:55;;;;;;;17.33;11.33;;;4.00;99.90;;;;;;6281881;22;20169;-91
2021/12/22 18:15:21;;;;;;;18.33;10.20;;;4.10;99.90;;;;;;6282854;22;20568;-91
2021/12/22 18:17:47;;;;;;;18.80;10.40;;;4.00;99.90;;;;;;6282444;22;20149;-91
2021/12/22 18:20:13;;;;;;;18.73;10.87;;;4.10;99.90;;;;;;6282083;22;20622;-91
2021/12/22 18:22:41;;;;;;;17.97;11.53;;;4.20;99.90;;;;;;6281556;22;20482;-89
2021/12/22 18:25:09;;;;;;;22.07;12.43;;;4.10;99.90;;;;;;6308435;22;20475;-90
2021/12/22 18:27:35;;;;;;;21.27;11.93;;;4.10;99.90;;;;;;6281694;22;20212;-91
2021/12/22 18:30:03;;;;;;;23.33;11.97;;;4.20;99.90;;;;;;6280457;22;20162;-91
2021/12/22 18:32:30;;;;;;;22.17;12.07;;;4.20;99.90;;;;;;6281581;22;20162;-90
2021/12/22 18:34:57;;;;;;;22.23;11.80;;;4.40;99.90;;;;;;6281684;22;20166;-91
2021/12/22 18:37:27;;;;;;;21.23;11.23;;;4.50;99.90;;;;;;6281669;22;20146;-91
2021/12/22 18:39:56;;;;;;;23.10;11.23;;;4.50;99.90;;;;;;6281046;22;20180;-91
2021/12/22 18:42:24;;;;;;;17.90;11.47;;;4.30;99.90;;;;;;6281863;22;20225;-91
2021/12/22 18:44:49;;;;;;;21.37;11.57;;;4.30;99.90;;;;;;6281063;22;20249;-90
2021/12/22 18:47:16;;;;;;;24.73;14.33;;;4.40;99.90;;;;;;6282945;22;20606;-91
2021/12/22 18:49:41;;;;;;;24.63;12.93;;;4.50;99.90;;;;;;6283940;22;20142;-88
2021/12/22 18:52:07;;;;;;;25.43;13.93;;;4.60;99.90;;;;;;6282010;22;20225;-91
2021/12/22 18:54:33;;;;;;;22.03;12.57;;;4.50;99.90;;;;;;6280929;22;20205;-92
2021/12/22 18:56:59;;;;;;;21.83;12.27;;;4.60;99.90;;;;;;6281353;22;20189;-91
2021/12/22 18:59:25;;;;;;;20.60;11.53;;;4.60;99.90;;;;;;6281147;22;20533;-89
2021/12/22 19:01:50;;;;;;;28.37;17.47;;;4.40;99.90;;;;;;6281110;22;20650;-91
2021/12/22 19:04:16;;;;;;;28.03;15.07;;;4.60;99.90;;;;;;6281216;22;20218;-92
2021/12/22 19:06:43;;;;;;;27.30;15.00;;;4.50;99.90;;;;;;6281380;22;20178;-91
2021/12/22 19:09:09;;;;;;;22.00;14.03;;;4.50;99.90;;;;;;6281169;22;20150;-91
2021/12/22 19:11:35;;;;;;;29.77;18.70;;;4.40;99.90;;;;;;6281374;22;20177;-91
2021/12/22 19:14:01;;;;;;;37.87;22.63;;;4.60;99.90;;;;;;6282021;22;20148;-91
2021/12/22 19:16:27;;;;;;;25.83;15.10;;;4.50;99.90;;;;;;6308102;22;20160;-91
2021/12/22 19:18:54;;;;;;;21.33;13.43;;;4.60;99.90;;;;;;6281192;22;20221;-91
2021/12/22 19:21:20;;;;;;;34.53;20.47;;;4.70;99.90;;;;;;6280731;22;20153;-89
2021/12/22 19:23:46;;;;;;;29.23;15.33;;;4.40;99.90;;;;;;6281433;22;20177;-91
2021/12/22 19:26:12;;;;;;;31.27;16.23;;;4.40;99.90;;;;;;6280466;22;20610;-90
2021/12/22 19:28:37;;;;;;;33.13;18.57;;;4.30;99.90;;;;;;6280668;22;20158;-91
2021/12/22 19:31:04;;;;;;;36.60;19.37;;;4.60;99.90;;;;;;6280892;22;20176;-90
2021/12/22 19:33:34;;;;;;;32.80;16.60;;;4.50;99.90;;;;;;6280802;22;20622;-91
2021/12/22 19:36:01;;;;;;;33.97;17.60;;;4.80;99.90;;;;;;6281119;22;20253;-90
2021/12/22 19:38:27;;;;;;;33.07;18.00;;;4.70;99.90;;;;;;6280850;22;20146;-91
2021/12/22 19:40:54;;;;;;;20.57;12.27;;;4.40;99.90;;;;;;6280569;22;20212;-90
2021/12/22 19:43:20;;;;;;;25.23;13.27;;;4.60;99.90;;;;;;6281503;22;20161;-90
2021/12/22 19:45:46;;;;;;;25.90;14.67;;;4.70;99.90;;;;;;6280912;22;20153;-90
2021/12/22 19:48:12;;;;;;;23.10;13.77;;;4.50;99.90;;;;;;6280955;22;20164;-90
2021/12/22 19:50:38;;;;;;;25.13;14.17;;;4.70;99.90;;;;;;6280274;22;20174;-89
2021/12/22 19:53:05;;;;;;;25.37;13.67;;;4.60;99.90;;;;;;6281001;22;20145;-90
2021/12/22 19:55:31;;;;;;;46.83;28.53;;;4.50;99.90;;;;;;6280963;22;20150;-90
2021/12/22 19:57:59;;;;;;;31.33;17.53;;;4.50;99.90;;;;;;6281050;22;20146;-90
2021/12/22 20:00:27;;;;;;;28.40;17.07;;;4.60;99.90;;;;;;6280709;22;20192;-89
2021/12/22 20:02:53;;;;;;;35.33;17.37;;;4.70;99.90;;;;;;6280660;22;20644;-89
2021/12/22 20:05:21;;;;;;;29.37;15.80;;;4.70;99.90;;;;;;6280507;22;20150;-90
2021/12/22 20:07:47;;;;;;;111.53;62.73;;;4.70;99.90;;;;;;6280151;22;20189;-89
2021/12/22 20:10:14;;;;;;;56.63;33.07;;;4.50;99.90;;;;;;6279613;22;20256;-90
2021/12/22 20:12:40;;;;;;;24.97;14.63;;;4.40;99.90;;;;;;6280014;22;20157;-90
2021/12/22 20:15:10;;;;;;;26.00;15.10;;;4.20;99.90;;;;;;6281412;22;20149;-90
2021/12/22 20:17:37;;;;;;;49.97;25.07;;;4.00;99.90;;;;;;6280614;22;20157;-90
2021/12/22 20:20:05;;;;;;;44.03;22.40;;;3.90;99.90;;;;;;6279835;22;20169;-89
2021/12/22 20:22:30;;;;;;;32.67;15.10;;;4.10;99.90;;;;;;6280519;22;20217;-89
2021/12/22 20:24:56;;;;;;;49.17;26.97;;;4.60;99.90;;;;;;6280204;22;20156;-90
2021/12/22 20:27:22;;;;;;;187.53;107.30;;;4.80;99.90;;;;;;6280880;22;20224;-89
2021/12/22 20:29:47;;;;;;;56.50;32.30;;;4.60;99.90;;;;;;6279892;22;20192;-90
2021/12/22 20:32:13;;;;;;;35.97;22.33;;;4.80;99.90;;;;;;6280328;22;20542;-91
2021/12/22 20:34:39;;;;;;;77.60;47.70;;;4.60;99.90;;;;;;6280038;22;20174;-89
2021/12/22 20:37:05;;;;;;;33.57;18.93;;;4.70;99.90;;;;;;6280606;22;20146;-90
2021/12/22 20:39:31;;;;;;;34.17;20.13;;;4.50;99.90;;;;;;6280508;22;20164;-92
2021/12/22 20:41:57;;;;;;;28.67;16.63;;;4.50;99.90;;;;;;6280791;22;20582;-90
2021/12/22 20:44:23;;;;;;;27.27;15.87;;;4.50;99.90;;;;;;6280397;22;20449;-90
2021/12/22 20:46:49;;;;;;;27.20;16.23;;;4.30;99.90;;;;;;6280277;22;20191;-88
2021/12/22 20:49:15;;;;;;;27.00;14.87;;;4.10;99.90;;;;;;6280537;22;20153;-89
2021/12/22 20:51:40;;;;;;;29.30;18.03;;;4.20;99.90;;;;;;6280503;22;20168;-90
2021/12/22 20:54:06;;;;;;;32.17;21.07;;;4.30;99.90;;;;;;6280123;22;20150;-90
2021/12/22 20:56:32;;;;;;;28.47;16.97;;;4.30;99.90;;;;;;6280174;22;20563;-89
2021/12/22 20:58:58;;;;;;;26.67;15.67;;;4.20;99.90;;;;;;6280834;22;20599;-89
2021/12/22 21:01:29;;;;;;;26.80;14.20;;;4.10;99.90;;;;;;6280096;22;20161;-89
2021/12/22 21:03:56;;;;;;;31.63;15.87;;;4.00;99.90;;;;;;6281001;22;20142;-90
2021/12/22 21:06:23;;;;;;;27.03;16.83;;;4.10;99.90;;;;;;6275760;22;20685;-90
2021/12/22 21:08:49;;;;;;;30.63;17.57;;;4.10;99.90;;;;;;6278340;22;20146;-90
2021/12/22 21:11:17;;;;;;;29.73;17.33;;;4.20;99.90;;;;;;6279767;22;20593;-90
2021/12/22 21:13:43;;;;;;;32.03;18.57;;;4.00;99.90;;;;;;6279539;22;20154;-90
2021/12/22 21:16:09;;;;;;;28.17;15.60;;;4.10;99.90;;;;;;6280442;22;20161;-90
2021/12/22 21:18:36;;;;;;;28.33;16.83;;;4.20;99.90;;;;;;6281550;22;20186;-92
2021/12/22 21:21:04;;;;;;;33.97;16.57;;;4.10;99.90;;;;;;6283956;22;20240;-92
2021/12/22 21:23:31;;;;;;;28.87;16.97;;;4.00;99.90;;;;;;6282259;22;20157;-89
2021/12/22 21:25:57;;;;;;;38.93;21.23;;;3.80;99.90;;;;;;6282041;22;20192;-90
2021/12/22 21:28:23;;;;;;;34.60;22.33;;;3.70;99.90;;;;;;6282429;22;20566;-90
2021/12/22 21:30:48;;;;;;;33.03;19.20;;;3.80;99.90;;;;;;6280850;22;20168;-92
2021/12/22 21:33:14;;;;;;;36.07;20.17;;;3.80;99.90;;;;;;6282161;22;20182;-93
2021/12/22 21:35:42;;;;;;;32.60;18.90;;;3.90;99.90;;;;;;6281256;22;20154;-89
2021/12/22 21:38:08;;;;;;;61.73;27.23;;;4.00;99.90;;;;;;6281919;22;20223;-92
2021/12/22 21:40:35;;;;;;;42.40;21.77;;;3.90;99.90;;;;;;6281517;22;20183;-92
2021/12/22 21:43:00;;;;;;;35.20;19.73;;;3.70;99.90;;;;;;6279665;22;20228;-91
2021/12/22 21:45:26;;;;;;;52.77;27.07;;;3.80;99.90;;;;;;6278060;22;20173;-92
2021/12/22 21:47:53;;;;;;;47.43;23.87;;;3.70;99.90;;;;;;6277192;22;20205;-92
2021/12/22 21:50:21;;;;;;;36.50;18.77;;;3.60;99.90;;;;;;6277711;22;20171;-92
2021/12/22 21:52:46;;;;;;;31.63;18.80;;;3.50;99.90;;;;;;6279306;22;20157;-91
2021/12/22 21:55:13;;;;;;;33.60;18.97;;;3.40;99.90;;;;;;6279463;22;20251;-90
2021/12/22 21:57:39;;;;;;;60.27;29.87;;;3.50;99.90;;;;;;6282779;22;20149;-92
2021/12/22 22:00:08;;;;;;;39.73;20.87;;;3.50;99.90;;;;;;6283347;22;20225;-90
2021/12/22 22:02:34;;;;;;;34.23;17.87;;;3.50;99.90;;;;;;6283878;22;20608;-92
2021/12/22 22:05:06;;;;;;;39.60;23.07;;;3.50;99.90;;;;;;6277401;22;20157;-91
2021/12/22 22:07:33;;;;;;;62.20;34.13;;;3.50;99.90;;;;;;6280796;22;20265;-90
2021/12/22 22:10:00;;;;;;;37.10;21.10;;;3.40;99.90;;;;;;6281449;22;20368;-93
2021/12/22 22:12:26;;;;;;;35.80;19.63;;;3.50;99.90;;;;;;6283025;22;20158;-92
2021/12/22 22:14:52;;;;;;;35.50;21.80;;;3.40;99.90;;;;;;6282665;22;20238;-92
2021/12/22 22:17:19;;;;;;;55.63;28.83;;;3.40;99.90;;;;;;6283172;22;20149;-91
2021/12/22 22:19:44;;;;;;;37.77;21.77;;;3.30;99.90;;;;;;6284114;22;20160;-91
2021/12/22 22:22:10;;;;;;;44.93;22.23;;;3.20;99.90;;;;;;6281947;22;20161;-92
2021/12/22 22:24:36;;;;;;;38.07;20.90;;;3.30;99.90;;;;;;6284459;22;20152;-93
2021/12/22 22:27:03;;;;;;;60.47;34.40;;;3.30;99.90;;;;;;6281325;22;20472;-91
2021/12/22 22:29:28;;;;;;;36.70;20.13;;;3.50;99.90;;;;;;6281575;22;20241;-92
2021/12/22 22:31:54;;;;;;;40.13;21.80;;;3.60;99.90;;;;;;6280598;22;20203;-90
2021/12/22 22:34:19;;;;;;;38.97;23.33;;;3.60;99.90;;;;;;6281273;22;20613;-93
2021/12/22 22:36:45;;;;;;;37.47;21.67;;;3.60;99.90;;;;;;6275503;22;20470;-91
2021/12/22 22:39:12;;;;;;;37.53;21.47;;;3.40;99.90;;;;;;6280954;22;20196;-92
2021/12/22 22:41:38;;;;;;;37.37;20.63;;;3.30;99.90;;;;;;6307660;22;20130;-88
2021/12/22 22:44:04;;;;;;;42.87;22.67;;;3.30;99.90;;;;;;6280954;22;20148;-93
2021/12/22 22:46:29;;;;;;;33.67;20.83;;;3.30;99.90;;;;;;6281897;22;20201;-89
2021/12/22 22:48:57;;;;;;;38.57;21.17;;;3.30;99.90;;;;;;6281451;22;20153;-89
2021/12/22 22:51:23;;;;;;;43.10;24.23;;;3.30;99.90;;;;;;6281157;22;20261;-90
2021/12/22 22:53:48;;;;;;;38.20;20.20;;;3.30;99.90;;;;;;6281527;22;20154;-90
2021/12/22 22:56:14;;;;;;;38.77;22.50;;;3.30;99.90;;;;;;6280939;22;20163;-91
2021/12/22 22:58:40;;;;;;;36.53;20.93;;;3.20;99.90;;;;;;6281060;22;20193;-92
2021/12/22 23:01:06;;;;;;;38.70;21.80;;;3.10;99.90;;;;;;6280162;22;20164;-92
2021/12/22 23:03:31;;;;;;;41.87;24.63;;;3.10;99.90;;;;;;6280671;22;20167;-93
2021/12/22 23:05:57;;;;;;;41.83;22.63;;;3.20;99.90;;;;;;6280212;22;20186;-91
2021/12/22 23:08:23;;;;;;;41.03;24.90;;;3.10;99.90;;;;;;6281364;22;20167;-90
2021/12/22 23:10:49;;;;;;;39.73;22.30;;;3.30;99.90;;;;;;6307664;22;20153;-91
2021/12/22 23:13:19;;;;;;;40.23;21.87;;;3.20;99.90;;;;;;6280457;22;20153;-90
2021/12/22 23:15:49;;;;;;;38.37;21.80;;;3.20;99.90;;;;;;6281302;22;20495;-92
2021/12/22 23:18:17;;;;;;;38.90;21.60;;;3.10;99.90;;;;;;6280672;22;20147;-93
2021/12/22 23:20:43;;;;;;;43.07;23.03;;;2.90;99.90;;;;;;6281582;22;20152;-91
2021/12/22 23:23:10;;;;;;;41.10;21.97;;;2.80;99.90;;;;;;6281075;22;20237;-92
2021/12/22 23:25:37;;;;;;;41.23;21.17;;;2.80;99.90;;;;;;6280774;22;20153;-92
2021/12/22 23:28:04;;;;;;;41.37;22.30;;;2.80;99.90;;;;;;6279906;22;20185;-91
2021/12/22 23:30:31;;;;;;;43.20;21.63;;;2.80;99.90;;;;;;6280236;22;20163;-91
2021/12/22 23:32:56;;;;;;;45.20;22.20;;;2.80;99.90;;;;;;6280643;22;20206;-92
2021/12/22 23:35:22;;;;;;;42.70;22.63;;;2.80;99.90;;;;;;6278613;22;20642;-91
2021/12/22 23:38:02;;;;;;;40.73;22.47;;;2.60;99.90;;;;;;6307448;22;20149;-91
2021/12/22 23:40:46;;;;;;;41.53;22.60;;;2.30;99.90;;;;;;6280207;22;20146;-91
2021/12/22 23:51:11;;;;;;;48.47;24.80;;;2.40;99.90;;;;;;6309198;22;20598;-91
2021/12/22 23:53:37;;;;;;;41.27;22.93;;;2.50;99.90;;;;;;6283912;22;20161;-90
2021/12/22 23:56:03;;;;;;;43.97;23.53;;;2.40;99.90;;;;;;6284088;22;20161;-92
2021/12/22 23:58:29;;;;;;;47.90;24.90;;;2.40;99.90;;;;;;6280806;22;20175;-90
